LTCD

Details ICAO LTCD (ERC)
Name ERZINCAN
Region Turkey
Timezone Europe/Istanbul (UTC+3.0)
Plans Departing 19
Arriving 21
Stats Elevation 3,783 ft / 1,153 m (AMSL)
Location 39.710705° 39.521140°
Runways 2
Magnetic Variation 6.010° E
Sunrise 2017-12-11 04:34:09 UTC / 2017-12-11 07:34:09 Local
Sunset 2017-12-11 13:59:00 UTC / 2017-12-11 16:59:00 Local
Advertisement - Login to hide

Runways

ID Width Length Bearing (true) Bearing (mag) Surface Threshold Offset Overrun Length
11 148 ft / 45 m 9,825 ft / 2,995 m 110.83° 104.82° Concrete 0 ft / 0 m 197 ft / 60 m
13 137 ft / 42 m 5,890 ft / 1,795 m 127.15° 121.14° Concrete 0 ft / 0 m 0 ft / 0 m
29 148 ft / 45 m 9,825 ft / 2,995 m 290.86° 284.85° Concrete 0 ft / 0 m 197 ft / 60 m
31 137 ft / 42 m 5,890 ft / 1,795 m 307.16° 301.15° Concrete 0 ft / 0 m 0 ft / 0 m

Map

Weather


0- 5 10 15 20 25 30 35+ Temperature / ° C

Clouds and Precipitation
Forecast for 2017-12-11 12:00 UTC. Updated 2 hours ago

Ground ~20,000 ft ~40,000 ft Winds

METAR

LTCD 111050Z 00000KT 9999 SCT040 BKN100 06/M03 Q1028 NOSIG

TAF

Not found

Frequencies

Ground 121.90 MHz GND
Tower 118.50 MHz TWR
Warning: Do not use this data for real-world aviation or navigation. No guarantee of current accuracy is given.